createdAt,value
2022-08-19T00:00:53.105Z,92.28
2022-08-19T00:03:22.714Z,93.65
2022-08-19T00:05:52.600Z,94.22
2022-08-19T00:08:21.875Z,94.32
2022-08-19T00:10:51.163Z,93.16
2022-08-19T00:13:21.491Z,93.81
2022-08-19T00:15:51.175Z,94.85
2022-08-19T00:18:21.842Z,94.42
2022-08-19T00:20:51.351Z,95.31
2022-08-19T00:23:20.791Z,95.90
2022-08-19T00:25:51.207Z,96.02
2022-08-19T00:28:22.120Z,94.95
2022-08-19T00:30:54.088Z,95.05
2022-08-19T00:33:24.824Z,95.59
2022-08-19T00:35:56.116Z,93.77
2022-08-19T00:38:29.641Z,95.57
2022-08-19T00:41:08.430Z,96.50
2022-08-19T00:43:37.702Z,96.48
2022-08-19T00:46:07.198Z,95.60
2022-08-19T00:48:38.471Z,94.85
2022-08-19T00:51:07.931Z,94.28
2022-08-19T00:53:38.567Z,93.64
2022-08-19T00:56:10.793Z,92.05
2022-08-19T00:58:41.461Z,92.14
2022-08-19T01:01:12.476Z,92.93
2022-08-19T01:03:57.591Z,94.25
2022-08-19T01:06:28.730Z,94.59
2022-08-19T01:08:58.975Z,94.53
2022-08-19T01:11:36.392Z,95.30
2022-08-19T01:14:07.373Z,94.57
2022-08-19T01:16:40.781Z,93.00
2022-08-19T01:19:21.513Z,94.23
2022-08-19T01:22:13.972Z,95.82
2022-08-19T01:24:49.997Z,96.10
2022-08-19T01:27:22.640Z,95.41
2022-08-19T01:29:56.497Z,95.50
2022-08-19T01:32:33.502Z,93.37
2022-08-19T01:35:06.923Z,91.44
2022-08-19T01:37:59.831Z,91.62
2022-08-19T01:40:35.629Z,92.37
2022-08-19T01:43:08.099Z,92.36
2022-08-19T01:45:43.210Z,90.95
2022-08-19T01:48:16.220Z,92.51
2022-08-19T01:50:50.845Z,95.81
2022-08-19T01:53:21.496Z,94.35
2022-08-19T01:55:58.373Z,92.40
2022-08-19T01:58:44.303Z,96.00
2022-08-19T02:01:16.061Z,97.43
2022-08-19T02:03:48.429Z,99.24
2022-08-19T02:06:20.424Z,95.43
2022-08-19T02:09:00.682Z,95.04
2022-08-19T02:11:38.576Z,98.01
2022-08-19T02:14:09.920Z,98.17
2022-08-19T02:16:43.134Z,96.28
2022-08-19T02:19:14.089Z,94.41
2022-08-19T02:21:46.074Z,92.94
2022-08-19T02:24:18.827Z,95.13
2022-08-19T02:26:49.006Z,93.42
2022-08-19T02:29:19.086Z,93.77
2022-08-19T02:31:50.318Z,93.76
2022-08-19T02:34:22.296Z,93.30
2022-08-19T02:36:54.410Z,93.11
2022-08-19T02:39:25.435Z,93.18
2022-08-19T02:41:55.553Z,94.10
2022-08-19T02:44:31.205Z,97.41
2022-08-19T02:47:02.439Z,95.74
2022-08-19T02:49:34.671Z,95.10
2022-08-19T02:52:05.979Z,95.21
2022-08-19T02:54:36.468Z,95.10
2022-08-19T02:57:07.791Z,98.00
2022-08-19T02:59:37.572Z,99.58
2022-08-19T03:02:07.943Z,99.78
2022-08-19T03:04:38.772Z,97.08
2022-08-19T03:07:11.191Z,99.63
2022-08-19T03:09:42.468Z,99.86
2022-08-19T03:12:13.626Z,98.61
2022-08-19T03:14:43.305Z,96.46
2022-08-19T03:17:12.998Z,96.22
2022-08-19T03:19:44.527Z,96.05
2022-08-19T03:22:14.522Z,95.78
2022-08-19T03:24:45.305Z,95.87
2022-08-19T03:27:15.533Z,98.18
2022-08-19T03:29:45.392Z,98.04
2022-08-19T03:32:19.850Z,97.95
2022-08-19T03:35:03.750Z,98.61
2022-08-19T03:37:33.235Z,99.16
2022-08-19T03:40:04.482Z,99.65
2022-08-19T03:42:49.016Z,98.84
2022-08-19T03:45:20.017Z,100.00
2022-08-19T03:47:50.197Z,98.22
2022-08-19T03:50:21.010Z,97.57
2022-08-19T03:52:54.255Z,99.49
2022-08-19T03:55:24.270Z,98.55
2022-08-19T03:57:58.630Z,98.54
2022-08-19T04:00:28.118Z,97.97
2022-08-19T04:02:59.996Z,97.19
2022-08-19T04:05:31.131Z,96.70
2022-08-19T04:08:00.544Z,96.69
2022-08-19T04:10:30.586Z,97.64
2022-08-19T04:12:59.934Z,97.96
2022-08-19T04:15:33.058Z,98.26
2022-08-19T04:18:02.333Z,98.02
2022-08-19T04:20:31.663Z,97.02
2022-08-19T04:23:00.748Z,96.47
2022-08-19T04:25:30.902Z,95.89
2022-08-19T04:27:59.525Z,94.79
2022-08-19T04:30:28.550Z,93.83
2022-08-19T04:32:57.332Z,92.82
2022-08-19T04:35:26.527Z,92.50
2022-08-19T04:37:55.635Z,92.18
2022-08-19T04:40:43.163Z,91.76
2022-08-19T04:43:15.323Z,90.60
2022-08-19T04:45:48.106Z,90.14
2022-08-19T04:48:26.877Z,89.57
2022-08-19T04:50:59.083Z,91.66
2022-08-19T04:53:37.699Z,90.95
2022-08-19T04:56:13.899Z,90.33
2022-08-19T04:58:45.143Z,89.94
2022-08-19T05:01:18.799Z,87.67
2022-08-19T05:03:47.810Z,83.17
2022-08-19T05:06:20.525Z,77.39
2022-08-19T05:08:50.223Z,76.34
2022-08-19T05:11:26.423Z,78.31
2022-08-19T05:13:56.716Z,72.90
2022-08-19T05:16:27.620Z,76.12
2022-08-19T05:19:15.564Z,73.71
2022-08-19T05:22:04.335Z,71.10
2022-08-19T05:24:35.567Z,70.63
2022-08-19T05:27:07.970Z,71.60
2022-08-19T05:29:37.477Z,72.21
2022-08-19T05:32:11.874Z,72.24
2022-08-19T05:34:41.085Z,71.00
2022-08-19T05:37:10.189Z,67.96
2022-08-19T05:39:41.945Z,68.12
2022-08-19T05:42:13.391Z,68.82
2022-08-19T05:44:45.353Z,68.00
2022-08-19T05:47:16.206Z,65.43
2022-08-19T05:49:44.830Z,63.75
2022-08-19T05:52:18.659Z,62.38
2022-08-19T05:54:51.219Z,62.25
2022-08-19T05:57:20.559Z,62.95
2022-08-19T05:59:53.269Z,62.62
2022-08-19T06:02:28.799Z,61.31
2022-08-19T06:04:57.443Z,59.58
2022-08-19T06:07:26.360Z,59.99
2022-08-19T06:09:59.698Z,58.26
2022-08-19T06:12:34.757Z,58.58
2022-08-19T06:15:09.165Z,57.89
2022-08-19T06:17:38.125Z,57.55
2022-08-19T06:20:10.250Z,57.10
2022-08-19T06:22:40.828Z,56.73
2022-08-19T06:25:10.831Z,55.42
2022-08-19T06:27:58.632Z,55.03
2022-08-19T06:30:31.919Z,55.62
2022-08-19T06:33:01.003Z,55.39
2022-08-19T06:35:30.791Z,52.56
2022-08-19T06:38:00.860Z,51.84
2022-08-19T06:40:30.216Z,52.97
2022-08-19T06:43:01.816Z,50.12
2022-08-19T06:45:34.885Z,50.64
2022-08-19T06:48:04.620Z,50.25
2022-08-19T06:50:33.318Z,49.52
2022-08-19T06:53:07.166Z,49.31
2022-08-19T06:55:36.598Z,48.75
2022-08-19T06:58:06.610Z,49.03
2022-08-19T07:00:35.659Z,48.67
2022-08-19T07:03:08.494Z,48.95
2022-08-19T07:05:45.719Z,48.30
2022-08-19T07:08:15.476Z,47.74
2022-08-19T07:10:46.926Z,47.11
2022-08-19T07:13:16.019Z,46.04
2022-08-19T07:15:45.561Z,46.52
2022-08-19T07:18:14.637Z,46.48
2022-08-19T07:20:44.533Z,45.06
2022-08-19T07:23:16.656Z,44.63
2022-08-19T07:25:52.965Z,44.49
2022-08-19T07:28:24.680Z,44.09
2022-08-19T07:30:54.123Z,43.83
2022-08-19T07:33:24.379Z,44.13
2022-08-19T07:35:56.818Z,43.40
2022-08-19T07:38:25.300Z,41.16
2022-08-19T07:40:55.619Z,41.29
2022-08-19T07:43:26.316Z,41.34
2022-08-19T07:46:04.439Z,40.12
2022-08-19T07:48:33.983Z,39.24
2022-08-19T07:51:06.447Z,38.20
2022-08-19T07:53:39.641Z,37.43
2022-08-19T07:56:09.151Z,37.53
2022-08-19T07:58:41.928Z,37.73
2022-08-19T08:01:16.669Z,37.63
2022-08-19T08:04:04.888Z,37.30
2022-08-19T08:06:53.971Z,37.14
2022-08-19T08:09:39.396Z,37.53
2022-08-19T08:12:30.816Z,37.57
2022-08-19T08:15:08.517Z,37.02
2022-08-19T08:17:49.109Z,36.25
2022-08-19T08:20:19.407Z,35.48
2022-08-19T08:23:08.408Z,36.22
2022-08-19T08:25:38.619Z,36.51
2022-08-19T08:28:08.843Z,36.30
2022-08-19T08:30:45.251Z,36.04
2022-08-19T08:35:47.514Z,35.29
2022-08-19T08:38:19.072Z,34.53
2022-08-19T08:40:57.869Z,34.70
2022-08-19T08:43:32.204Z,34.17
2022-08-19T08:46:04.501Z,35.04
2022-08-19T08:48:55.974Z,34.28
2022-08-19T08:51:35.172Z,33.75
2022-08-19T08:54:09.769Z,32.85
2022-08-19T08:56:44.459Z,33.24
2022-08-19T08:59:29.427Z,32.86
2022-08-19T09:01:58.119Z,32.65
2022-08-19T09:04:27.719Z,32.06
2022-08-19T09:07:26.242Z,32.53
2022-08-19T09:10:44.311Z,32.97
2022-08-19T09:13:37.485Z,32.20
2022-08-19T09:16:17.456Z,32.17
2022-08-19T09:18:55.770Z,32.44
2022-08-19T09:21:33.176Z,30.71
2022-08-19T09:24:05.803Z,30.91
2022-08-19T09:26:52.313Z,29.99
2022-08-19T09:29:23.690Z,28.54
2022-08-19T09:31:52.377Z,27.63
2022-08-19T09:34:22.202Z,28.35
2022-08-19T09:36:54.882Z,28.47
2022-08-19T09:39:24.064Z,28.25
2022-08-19T09:41:54.109Z,28.03
2022-08-19T09:44:22.675Z,27.62
2022-08-19T09:46:52.267Z,26.92
2022-08-19T09:49:25.049Z,26.99
2022-08-19T09:51:57.526Z,26.65
2022-08-19T09:54:27.133Z,26.71
2022-08-19T09:56:59.059Z,26.05
2022-08-19T09:59:29.111Z,26.37
2022-08-19T10:02:03.817Z,26.05
2022-08-19T10:04:58.126Z,25.21
2022-08-19T10:07:29.028Z,24.10
2022-08-19T10:10:10.567Z,23.91
2022-08-19T10:12:39.439Z,23.15
2022-08-19T10:15:09.226Z,23.61
2022-08-19T10:17:38.665Z,23.96
2022-08-19T10:20:08.426Z,23.49
2022-08-19T10:22:38.791Z,23.26
2022-08-19T10:25:08.176Z,23.33
2022-08-19T10:27:36.985Z,23.01
2022-08-19T10:30:11.222Z,23.34
2022-08-19T10:32:40.105Z,24.05
2022-08-19T10:35:16.202Z,22.93
2022-08-19T10:37:57.468Z,24.19
2022-08-19T10:40:33.140Z,23.33
2022-08-19T10:43:01.771Z,23.47
2022-08-19T10:45:30.457Z,23.80
2022-08-19T10:47:59.398Z,22.95
2022-08-19T10:50:47.068Z,22.79
2022-08-19T10:53:15.956Z,22.87
2022-08-19T10:56:04.714Z,22.15
2022-08-19T10:58:33.705Z,23.09
2022-08-19T11:01:02.781Z,22.53
2022-08-19T11:03:31.999Z,21.66
2022-08-19T11:06:07.383Z,21.98
2022-08-19T11:08:38.874Z,22.76
2022-08-19T11:11:09.879Z,22.97
2022-08-19T11:13:41.383Z,21.97
2022-08-19T11:16:15.291Z,21.75
2022-08-19T11:18:47.235Z,22.12
2022-08-19T11:21:21.790Z,22.43
2022-08-19T11:23:53.125Z,23.77
2022-08-19T11:26:22.938Z,22.07
2022-08-19T11:28:54.700Z,22.28
2022-08-19T11:31:29.162Z,22.62
2022-08-19T11:34:04.405Z,23.09
2022-08-19T11:36:34.537Z,22.15
2022-08-19T11:39:04.889Z,21.42
2022-08-19T11:41:33.480Z,22.00
2022-08-19T11:44:04.114Z,23.59
2022-08-19T11:46:32.901Z,24.42
2022-08-19T11:49:02.807Z,24.10
2022-08-19T11:51:31.498Z,24.05
2022-08-19T11:54:01.340Z,24.08
2022-08-19T11:56:30.202Z,23.87
2022-08-19T11:59:01.521Z,23.43
2022-08-19T12:01:30.649Z,22.88
2022-08-19T12:04:00.397Z,23.50
2022-08-19T12:06:33.068Z,22.17
2022-08-19T12:09:06.840Z,22.58
2022-08-19T12:11:41.365Z,22.41
2022-08-19T12:14:15.473Z,22.99
2022-08-19T12:16:50.939Z,22.94
2022-08-19T12:19:22.653Z,22.32
2022-08-19T12:21:52.487Z,22.74
2022-08-19T12:24:24.518Z,21.49
2022-08-19T12:26:54.680Z,21.38
2022-08-19T12:29:29.710Z,21.77
2022-08-19T12:32:03.872Z,21.87
2022-08-19T12:34:34.450Z,21.90
2022-08-19T12:37:05.788Z,21.42
2022-08-19T12:39:45.403Z,21.40
2022-08-19T12:42:16.400Z,21.54
2022-08-19T12:44:46.293Z,22.77
2022-08-19T12:47:15.700Z,22.36
2022-08-19T12:49:53.921Z,21.88
2022-08-19T12:52:27.113Z,23.62
2022-08-19T12:54:58.111Z,23.57
2022-08-19T12:57:32.146Z,23.15
2022-08-19T13:00:12.709Z,23.15
2022-08-19T13:02:45.910Z,22.53
2022-08-19T13:05:18.482Z,23.05
2022-08-19T13:07:47.374Z,24.34
2022-08-19T13:10:19.212Z,25.42
2022-08-19T13:12:50.388Z,23.81
2022-08-19T13:15:23.742Z,23.30
2022-08-19T13:17:55.059Z,23.50
2022-08-19T13:20:24.388Z,23.79
2022-08-19T13:22:53.219Z,24.05
2022-08-19T13:25:22.614Z,25.74
2022-08-19T13:27:53.208Z,25.92
2022-08-19T13:30:40.457Z,24.82
2022-08-19T13:33:16.242Z,25.67
2022-08-19T13:35:51.681Z,26.36
2022-08-19T13:38:22.738Z,25.81
2022-08-19T13:40:53.836Z,26.25
2022-08-19T13:43:26.928Z,26.42
2022-08-19T13:45:59.501Z,26.81
2022-08-19T13:48:28.240Z,27.47
2022-08-19T13:50:57.488Z,27.20
2022-08-19T13:53:26.174Z,27.30
2022-08-19T13:55:55.377Z,27.93
2022-08-19T13:58:24.369Z,28.78
2022-08-19T14:00:52.987Z,28.99
2022-08-19T14:03:22.554Z,29.30
2022-08-19T14:05:50.935Z,28.61
2022-08-19T14:08:20.234Z,30.28
2022-08-19T14:10:49.845Z,31.26
2022-08-19T14:13:21.611Z,31.59
2022-08-19T14:15:51.824Z,31.85
2022-08-19T14:18:20.612Z,31.60
2022-08-19T14:20:49.202Z,31.80
2022-08-19T14:23:17.880Z,32.48
2022-08-19T14:25:47.794Z,31.98
2022-08-19T14:28:18.016Z,31.97
2022-08-19T14:30:50.181Z,31.90
2022-08-19T14:33:24.094Z,32.54
2022-08-19T14:35:59.649Z,32.72
2022-08-19T14:38:33.092Z,32.79
2022-08-19T14:41:23.529Z,32.38
2022-08-19T14:43:54.208Z,33.40
2022-08-19T14:46:28.092Z,32.96
2022-08-19T14:48:59.833Z,33.14
2022-08-19T14:51:29.228Z,33.95
2022-08-19T14:53:58.123Z,33.72
2022-08-19T14:56:30.089Z,33.87
2022-08-19T14:59:02.251Z,34.44
2022-08-19T15:01:31.095Z,34.33
2022-08-19T15:03:59.831Z,33.74
2022-08-19T15:06:29.437Z,34.19
2022-08-19T15:09:02.041Z,33.72
2022-08-19T15:11:34.857Z,33.31
2022-08-19T15:14:04.195Z,34.04
2022-08-19T15:16:34.253Z,34.30
2022-08-19T15:19:02.898Z,33.68
2022-08-19T15:21:31.965Z,34.34
2022-08-19T15:24:02.130Z,34.39
2022-08-19T15:26:33.555Z,35.12
2022-08-19T15:29:05.988Z,35.61
2022-08-19T15:31:38.186Z,35.01
2022-08-19T15:34:07.993Z,35.33
2022-08-19T15:36:38.237Z,35.59
2022-08-19T15:39:07.649Z,36.34
2022-08-19T15:41:37.236Z,36.77
2022-08-19T15:44:11.623Z,37.28
2022-08-19T15:46:43.427Z,37.93
2022-08-19T15:49:14.383Z,37.93
2022-08-19T15:51:45.759Z,37.63
2022-08-19T15:54:19.348Z,37.94
2022-08-19T15:57:08.575Z,38.89
2022-08-19T16:00:01.540Z,39.85
2022-08-19T16:02:53.761Z,40.30
2022-08-19T16:05:45.096Z,39.62
2022-08-19T16:08:15.821Z,39.94
2022-08-19T16:10:44.719Z,39.82
2022-08-19T16:13:13.609Z,40.02
2022-08-19T16:15:43.629Z,41.08
2022-08-19T16:18:12.310Z,41.19
2022-08-19T16:20:41.397Z,41.30
2022-08-19T16:23:11.519Z,41.40
2022-08-19T16:25:40.516Z,41.50
2022-08-19T16:28:11.027Z,42.14
2022-08-19T16:30:41.034Z,42.27
2022-08-19T16:33:10.879Z,42.82
2022-08-19T16:35:40.082Z,43.38
2022-08-19T16:38:08.956Z,44.33
2022-08-19T16:40:37.652Z,44.91
2022-08-19T16:43:06.838Z,45.29
2022-08-19T16:45:35.635Z,46.67
2022-08-19T16:48:04.894Z,47.44
2022-08-19T16:50:48.768Z,47.75
2022-08-19T16:53:21.831Z,46.94
2022-08-19T16:55:51.175Z,46.41
2022-08-19T16:58:22.360Z,46.82
2022-08-19T17:01:03.719Z,47.09
2022-08-19T17:03:36.352Z,47.07
2022-08-19T17:06:20.856Z,46.97
2022-08-19T17:08:51.724Z,47.63
2022-08-19T17:11:21.975Z,49.94
2022-08-19T17:13:52.000Z,49.34
2022-08-19T17:16:24.824Z,48.42
2022-08-19T17:18:56.171Z,47.63
2022-08-19T17:21:28.458Z,47.36
2022-08-19T17:23:58.927Z,48.17
2022-08-19T17:26:29.605Z,50.12
2022-08-19T17:28:59.925Z,50.23
2022-08-19T17:31:31.542Z,50.74
2022-08-19T17:34:01.034Z,51.72
2022-08-19T17:36:34.418Z,52.29
2022-08-19T17:39:05.326Z,52.43
2022-08-19T17:41:34.740Z,52.98
2022-08-19T17:44:04.742Z,53.26
2022-08-19T17:46:34.281Z,53.60
2022-08-19T17:49:03.041Z,54.07
2022-08-19T17:51:35.971Z,53.82
2022-08-19T17:54:05.891Z,54.77
2022-08-19T17:56:34.769Z,54.72
2022-08-19T17:59:03.457Z,56.40
2022-08-19T18:01:52.107Z,56.01
2022-08-19T18:04:25.195Z,56.18
2022-08-19T18:06:55.645Z,56.40
2022-08-19T18:09:42.254Z,56.26
2022-08-19T18:12:14.247Z,56.88
2022-08-19T18:14:43.089Z,56.81
2022-08-19T18:17:15.537Z,56.54
2022-08-19T18:19:45.267Z,56.75
2022-08-19T18:22:37.518Z,57.05
2022-08-19T18:25:11.839Z,57.28
2022-08-19T18:27:43.534Z,55.29
2022-08-19T18:30:13.091Z,55.53
2022-08-19T18:32:42.683Z,55.85
2022-08-19T18:35:18.366Z,56.25
2022-08-19T18:37:47.435Z,56.79
2022-08-19T18:40:38.653Z,56.83
2022-08-19T18:43:26.186Z,61.34
2022-08-19T18:46:13.778Z,61.86
2022-08-19T18:49:02.461Z,63.00
2022-08-19T18:51:32.448Z,63.39
2022-08-19T18:54:01.878Z,63.61
2022-08-19T18:56:35.176Z,63.86
2022-08-19T18:59:03.973Z,63.83
2022-08-19T19:01:37.087Z,62.63
2022-08-19T19:04:11.674Z,61.61
2022-08-19T19:06:41.701Z,60.94
2022-08-19T19:09:19.894Z,60.87
2022-08-19T19:11:52.172Z,61.31
2022-08-19T19:14:48.587Z,63.61
2022-08-19T19:17:19.034Z,65.13
2022-08-19T19:19:48.031Z,65.59
2022-08-19T19:22:23.170Z,65.49
2022-08-19T19:24:54.513Z,65.61
2022-08-19T19:27:23.613Z,65.82
2022-08-19T19:29:53.115Z,65.72
2022-08-19T19:32:28.886Z,65.57
2022-08-19T19:34:57.871Z,63.11
2022-08-19T19:37:26.642Z,62.72
2022-08-19T19:39:55.255Z,64.09
2022-08-19T19:42:24.625Z,66.69
2022-08-19T19:44:55.040Z,64.68
2022-08-19T19:47:25.946Z,63.90
2022-08-19T19:50:14.706Z,64.72
2022-08-19T19:52:46.509Z,69.43
2022-08-19T19:55:18.609Z,70.19
2022-08-19T19:57:49.302Z,71.22
2022-08-19T20:00:19.265Z,71.40
2022-08-19T20:02:50.823Z,71.60
2022-08-19T20:05:21.871Z,71.77
2022-08-19T20:08:13.237Z,72.22
2022-08-19T20:10:44.066Z,69.32
2022-08-19T20:13:15.829Z,70.24
2022-08-19T20:15:44.920Z,71.58
2022-08-19T20:18:16.779Z,71.55
2022-08-19T20:20:46.900Z,72.70
2022-08-19T20:23:15.683Z,72.38
2022-08-19T20:25:44.485Z,71.44
2022-08-19T20:28:13.384Z,73.25
2022-08-19T20:30:46.347Z,72.45
2022-08-19T20:33:15.654Z,72.53
2022-08-19T20:35:45.526Z,72.11
2022-08-19T20:38:14.357Z,71.44
2022-08-19T20:40:43.045Z,71.95
2022-08-19T20:43:13.801Z,71.54
2022-08-19T20:45:42.970Z,72.52
2022-08-19T20:48:12.780Z,72.11
2022-08-19T20:50:41.878Z,72.64
2022-08-19T20:53:13.432Z,72.73
2022-08-19T20:55:47.504Z,72.19
2022-08-19T20:58:21.530Z,72.11
2022-08-19T21:00:52.637Z,71.87
2022-08-19T21:03:24.151Z,71.07
2022-08-19T21:05:53.249Z,71.05
2022-08-19T21:08:23.405Z,71.57
2022-08-19T21:10:53.764Z,71.22
2022-08-19T21:13:23.298Z,71.48
2022-08-19T21:15:52.687Z,70.83
2022-08-19T21:18:23.330Z,70.69
2022-08-19T21:20:52.320Z,69.80
2022-08-19T21:23:25.140Z,69.42
2022-08-19T21:25:56.836Z,70.67
2022-08-19T21:28:34.389Z,72.37
2022-08-19T21:31:10.646Z,72.05
2022-08-19T21:33:39.608Z,71.71
2022-08-19T21:36:09.224Z,72.12
2022-08-19T21:38:38.414Z,72.25
2022-08-19T21:41:07.455Z,72.33
2022-08-19T21:43:38.036Z,71.74
2022-08-19T21:46:08.159Z,71.64
2022-08-19T21:48:37.261Z,72.34
2022-08-19T21:51:06.553Z,72.63
2022-08-19T21:53:36.070Z,72.69
2022-08-19T21:56:06.863Z,71.97
2022-08-19T21:58:39.579Z,70.85
2022-08-19T22:01:08.906Z,69.64
2022-08-19T22:03:38.943Z,69.70
2022-08-19T22:06:08.769Z,69.79
2022-08-19T22:08:37.553Z,71.21
2022-08-19T22:11:06.484Z,70.32
2022-08-19T22:13:40.264Z,73.74
2022-08-19T22:16:10.610Z,72.68
2022-08-19T22:18:40.319Z,72.62
2022-08-19T22:21:11.930Z,72.73
2022-08-19T22:23:42.697Z,72.55
2022-08-19T22:26:13.453Z,76.11
2022-08-19T22:28:43.035Z,76.84
2022-08-19T22:31:13.089Z,76.28
2022-08-19T22:33:42.396Z,77.22
2022-08-19T22:36:11.361Z,77.17
2022-08-19T22:38:40.713Z,76.44
2022-08-19T22:41:10.066Z,77.32
2022-08-19T22:43:38.854Z,78.05
2022-08-19T22:46:16.824Z,77.75
2022-08-19T22:48:48.332Z,77.83
2022-08-19T22:51:43.922Z,77.45
2022-08-19T22:54:12.609Z,77.51
2022-08-19T22:56:41.403Z,77.26
2022-08-19T22:59:11.730Z,74.71
2022-08-19T23:01:43.473Z,76.78
2022-08-19T23:04:13.310Z,76.65
2022-08-19T23:06:42.498Z,78.21
2022-08-19T23:09:16.957Z,78.06
2022-08-19T23:11:47.761Z,77.76
2022-08-19T23:14:18.312Z,75.50
2022-08-19T23:16:51.067Z,74.75
2022-08-19T23:19:21.928Z,74.60
2022-08-19T23:21:51.110Z,75.69
2022-08-19T23:24:20.801Z,76.74
2022-08-19T23:27:08.352Z,77.62
2022-08-19T23:29:56.442Z,77.98
2022-08-19T23:32:25.879Z,78.16
2022-08-19T23:34:56.986Z,79.81
2022-08-19T23:37:26.791Z,81.27
2022-08-19T23:39:56.083Z,79.23
2022-08-19T23:42:26.980Z,78.74
2022-08-19T23:45:07.222Z,80.43
2022-08-19T23:47:36.666Z,83.54
2022-08-19T23:50:12.079Z,83.11
2022-08-19T23:52:55.980Z,81.87
2022-08-19T23:55:30.604Z,83.03
2022-08-19T23:58:01.421Z,82.80
